createdAt,value
2018-02-03T00:00:22.254Z,4.61
2018-02-03T00:01:22.364Z,4.58
2018-02-03T00:02:22.196Z,4.61
2018-02-03T00:03:22.275Z,4.55
2018-02-03T00:04:22.138Z,4.55
2018-02-03T00:05:22.291Z,4.52
2018-02-03T00:06:22.079Z,4.61
2018-02-03T00:07:22.201Z,4.57
2018-02-03T00:08:22.025Z,4.54
2018-02-03T00:09:22.126Z,4.64
2018-02-03T00:10:21.965Z,4.58
2018-02-03T00:11:22.176Z,4.64
2018-02-03T00:12:21.908Z,4.62
2018-02-03T00:13:22.050Z,4.61
2018-02-03T00:14:21.849Z,4.65
2018-02-03T00:15:21.948Z,4.57
2018-02-03T00:16:21.788Z,4.55
2018-02-03T00:17:21.961Z,4.59
2018-02-03T00:18:21.733Z,4.67
2018-02-03T00:19:21.883Z,4.58
2018-02-03T00:20:21.675Z,4.59
2018-02-03T00:21:21.790Z,4.51
2018-02-03T00:22:21.617Z,4.52
2018-02-03T00:23:21.696Z,4.64
2018-02-03T00:24:21.560Z,4.61
2018-02-03T00:25:21.710Z,4.61
2018-02-03T00:26:21.501Z,4.61
2018-02-03T00:27:21.626Z,4.54
2018-02-03T00:28:21.443Z,4.54
2018-02-03T00:29:21.537Z,4.52
2018-02-03T00:30:21.386Z,4.52
2018-02-03T00:31:21.546Z,4.54
2018-02-03T00:32:21.327Z,4.61
2018-02-03T00:33:21.472Z,4.52
2018-02-03T00:34:21.273Z,4.59
2018-02-03T00:35:21.374Z,4.59
2018-02-03T00:36:21.211Z,4.57
2018-02-03T00:37:21.388Z,4.52
2018-02-03T00:38:21.148Z,4.50
2018-02-03T00:39:21.345Z,4.51
2018-02-03T00:40:21.111Z,4.54
2018-02-03T00:41:21.207Z,4.46
2018-02-03T00:42:21.036Z,4.55
2018-02-03T00:43:21.221Z,4.52
2018-02-03T00:44:20.977Z,4.54
2018-02-03T00:45:21.131Z,4.51
2018-02-03T00:46:20.925Z,4.50
2018-02-03T00:47:21.044Z,4.52
2018-02-03T00:48:20.864Z,4.51
2018-02-03T00:49:20.957Z,4.37
2018-02-03T00:50:20.803Z,4.43
2018-02-03T00:51:20.970Z,4.46
2018-02-03T00:52:20.747Z,4.42
2018-02-03T00:53:20.776Z,4.47
2018-02-03T00:54:20.691Z,4.39
2018-02-03T00:55:20.738Z,4.46
2018-02-03T00:56:20.634Z,4.44
2018-02-03T00:57:20.909Z,4.47
2018-02-03T00:58:20.573Z,4.47
2018-02-03T00:59:20.616Z,4.43
2018-02-03T01:00:20.517Z,4.46
2018-02-03T01:01:20.526Z,4.50
2018-02-03T01:02:20.454Z,4.51
2018-02-03T01:03:20.428Z,4.50
2018-02-03T01:04:20.443Z,4.43
2018-02-03T01:05:20.370Z,4.44
2018-02-03T01:06:20.357Z,4.34
2018-02-03T01:07:20.311Z,4.40
2018-02-03T01:08:20.372Z,4.42
2018-02-03T01:09:20.260Z,4.43
2018-02-03T01:10:20.284Z,4.36
2018-02-03T01:11:20.208Z,4.47
2018-02-03T01:12:20.193Z,4.33
2018-02-03T01:13:20.136Z,4.37
2018-02-03T01:14:20.209Z,4.33
2018-02-03T01:15:20.082Z,4.40
2018-02-03T01:16:20.119Z,4.36
2018-02-03T01:17:20.023Z,4.34
2018-02-03T01:18:20.032Z,4.28
2018-02-03T01:19:19.963Z,4.21
2018-02-03T01:20:20.046Z,4.19
2018-02-03T01:21:19.909Z,4.18
2018-02-03T01:22:19.957Z,4.19
2018-02-03T01:23:19.849Z,4.21
2018-02-03T01:24:19.869Z,4.22
2018-02-03T01:25:19.793Z,4.21
2018-02-03T01:26:19.778Z,4.18
2018-02-03T01:27:19.730Z,4.24
2018-02-03T01:28:19.785Z,4.21
2018-02-03T01:29:19.675Z,4.15
2018-02-03T01:30:19.705Z,4.21
2018-02-03T01:31:19.617Z,4.16
2018-02-03T01:32:19.616Z,4.15
2018-02-03T01:33:19.559Z,4.12
2018-02-03T01:34:19.630Z,4.15
2018-02-03T01:35:19.493Z,4.14
2018-02-03T01:36:19.542Z,4.12
2018-02-03T01:37:19.454Z,4.10
2018-02-03T01:38:19.453Z,4.21
2018-02-03T01:39:19.378Z,4.19
2018-02-03T01:40:19.467Z,4.14
2018-02-03T01:41:19.326Z,4.16
2018-02-03T01:42:19.380Z,4.18
2018-02-03T01:43:19.266Z,4.21
2018-02-03T01:44:19.290Z,4.16
2018-02-03T01:45:19.211Z,4.21
2018-02-03T01:46:19.214Z,4.21
2018-02-03T01:47:19.150Z,4.18
2018-02-03T01:48:19.215Z,4.12
2018-02-03T01:49:19.102Z,4.16
2018-02-03T01:50:19.128Z,4.15
2018-02-03T01:51:19.033Z,4.08
2018-02-03T01:52:19.038Z,4.21
2018-02-03T01:53:18.974Z,4.15
2018-02-03T01:54:19.052Z,4.15
2018-02-03T01:55:18.938Z,4.07
2018-02-03T01:56:18.964Z,4.08
2018-02-03T01:57:18.858Z,4.08
2018-02-03T01:58:18.875Z,4.21
2018-02-03T01:59:18.799Z,4.07
2018-02-03T02:00:18.787Z,4.15
2018-02-03T02:01:18.740Z,4.15
2018-02-03T02:02:18.802Z,4.07
2018-02-03T02:03:18.684Z,4.06
2018-02-03T02:04:18.712Z,4.10
2018-02-03T02:05:18.623Z,4.12
2018-02-03T02:06:18.624Z,4.14
2018-02-03T02:07:18.563Z,4.07
2018-02-03T02:08:18.638Z,4.08
2018-02-03T02:09:18.508Z,4.15
2018-02-03T02:10:18.577Z,4.08
2018-02-03T02:11:18.452Z,4.12
2018-02-03T02:12:18.455Z,4.06
2018-02-03T02:13:18.393Z,4.12
2018-02-03T02:14:18.372Z,4.04
2018-02-03T02:15:18.336Z,4.16
2018-02-03T02:16:18.387Z,4.10
2018-02-03T02:17:18.274Z,4.18
2018-02-03T02:18:18.297Z,4.12
2018-02-03T02:19:18.214Z,4.08
2018-02-03T02:20:18.213Z,4.07
2018-02-03T02:21:18.158Z,4.10
2018-02-03T02:22:18.226Z,4.22
2018-02-03T02:23:18.096Z,4.06
2018-02-03T02:24:18.137Z,4.14
2018-02-03T02:25:18.040Z,4.15
2018-02-03T02:26:18.046Z,4.15
2018-02-03T02:27:17.980Z,4.08
2018-02-03T02:28:18.061Z,4.14
2018-02-03T02:29:17.928Z,4.08
2018-02-03T02:30:17.974Z,4.08
2018-02-03T02:31:17.872Z,4.14
2018-02-03T02:32:17.883Z,4.18
2018-02-03T02:33:17.806Z,4.15
2018-02-03T02:34:17.796Z,4.15
2018-02-03T02:35:17.746Z,4.22
2018-02-03T02:36:17.810Z,4.10
2018-02-03T02:37:17.689Z,4.12
2018-02-03T02:38:17.722Z,4.16
2018-02-03T02:39:17.630Z,4.14
2018-02-03T02:40:17.632Z,4.12
2018-02-03T02:41:17.582Z,4.10
2018-02-03T02:42:17.647Z,4.18
2018-02-03T02:43:17.512Z,4.14
2018-02-03T02:44:17.557Z,4.18
2018-02-03T02:45:17.460Z,4.08
2018-02-03T02:46:17.467Z,4.14
2018-02-03T02:47:17.393Z,4.14
2018-02-03T02:48:17.381Z,4.08
2018-02-03T02:49:17.338Z,4.15
2018-02-03T02:50:17.396Z,4.07
2018-02-03T02:51:17.279Z,4.21
2018-02-03T02:52:17.308Z,4.18
2018-02-03T02:53:17.223Z,4.14
2018-02-03T02:54:17.221Z,4.04
2018-02-03T02:55:17.165Z,4.06
2018-02-03T02:56:17.245Z,4.22
2018-02-03T02:57:17.109Z,4.14
2018-02-03T02:58:17.142Z,4.04
2018-02-03T02:59:17.044Z,4.04
2018-02-03T03:00:17.055Z,4.14
2018-02-03T03:01:16.981Z,4.12
2018-02-03T03:02:17.068Z,3.97
2018-02-03T03:03:16.943Z,4.12
2018-02-03T03:04:16.981Z,4.10
2018-02-03T03:05:16.869Z,4.07
2018-02-03T03:06:16.890Z,4.06
2018-02-03T03:07:16.806Z,4.06
2018-02-03T03:08:16.803Z,3.98
2018-02-03T03:09:16.752Z,4.01
2018-02-03T03:10:16.817Z,4.12
2018-02-03T03:11:16.694Z,4.07
2018-02-03T03:12:16.728Z,3.98
2018-02-03T03:13:16.634Z,4.10
2018-02-03T03:14:16.630Z,4.10
2018-02-03T03:15:16.577Z,4.10
2018-02-03T03:16:16.653Z,4.04
2018-02-03T03:17:16.517Z,3.97
2018-02-03T03:18:16.564Z,3.98
2018-02-03T03:19:16.455Z,4.01
2018-02-03T03:20:16.477Z,3.98
2018-02-03T03:21:16.386Z,4.00
2018-02-03T03:22:16.383Z,4.01
2018-02-03T03:23:16.350Z,4.01
2018-02-03T03:24:16.403Z,3.98
2018-02-03T03:25:16.280Z,3.98
2018-02-03T03:26:16.316Z,3.98
2018-02-03T03:27:16.224Z,4.00
2018-02-03T03:28:16.225Z,3.89
2018-02-03T03:29:16.161Z,3.94
2018-02-03T03:30:16.240Z,3.86
2018-02-03T03:31:16.103Z,3.92
2018-02-03T03:32:16.150Z,3.96
2018-02-03T03:33:16.042Z,3.98
2018-02-03T03:34:16.061Z,3.88
2018-02-03T03:35:15.985Z,3.89
2018-02-03T03:36:15.973Z,3.97
2018-02-03T03:37:15.926Z,3.94
2018-02-03T03:38:15.983Z,3.97
2018-02-03T03:39:15.862Z,3.86
2018-02-03T03:40:15.899Z,3.92
2018-02-03T03:41:15.807Z,3.98
2018-02-03T03:42:15.812Z,3.94
2018-02-03T03:43:15.747Z,3.94
2018-02-03T03:44:15.824Z,3.97
2018-02-03T03:45:15.704Z,3.96
2018-02-03T03:46:15.741Z,3.83
2018-02-03T03:47:15.629Z,3.83
2018-02-03T03:48:15.652Z,3.83
2018-02-03T03:49:15.572Z,3.83
2018-02-03T03:50:15.581Z,3.83
2018-02-03T03:51:15.511Z,3.80
2018-02-03T03:52:15.599Z,3.83
2018-02-03T03:53:15.453Z,3.79
2018-02-03T03:54:15.491Z,3.80
2018-02-03T03:55:15.392Z,3.80
2018-02-03T03:56:15.399Z,3.88
2018-02-03T03:57:15.333Z,3.83
2018-02-03T03:58:15.418Z,3.85
2018-02-03T03:59:15.275Z,3.83
2018-02-03T04:00:15.323Z,3.80
2018-02-03T04:01:15.217Z,3.83
2018-02-03T04:02:15.233Z,3.82
2018-02-03T04:03:15.149Z,3.90
2018-02-03T04:04:15.196Z,3.82
2018-02-03T04:05:15.097Z,3.80
2018-02-03T04:06:15.160Z,3.82
2018-02-03T04:07:15.034Z,3.82
2018-02-03T04:08:15.073Z,3.83
2018-02-03T04:09:14.978Z,3.82
2018-02-03T04:10:14.982Z,3.83
2018-02-03T04:11:14.919Z,3.78
2018-02-03T04:12:14.996Z,3.78
2018-02-03T04:13:14.858Z,3.79
2018-02-03T04:14:14.910Z,3.80
2018-02-03T04:15:14.802Z,3.65
2018-02-03T04:16:14.831Z,3.79
2018-02-03T04:17:14.745Z,3.64
2018-02-03T04:18:14.731Z,3.78
2018-02-03T04:19:14.681Z,3.76
2018-02-03T04:20:14.742Z,3.82
2018-02-03T04:21:14.633Z,3.78
2018-02-03T04:22:14.655Z,3.79
2018-02-03T04:23:14.555Z,3.79
2018-02-03T04:24:14.565Z,3.78
2018-02-03T04:25:14.503Z,3.72
2018-02-03T04:26:14.580Z,3.71
2018-02-03T04:27:14.446Z,3.64
2018-02-03T04:28:14.494Z,3.80
2018-02-03T04:29:14.386Z,3.80
2018-02-03T04:30:14.403Z,3.72
2018-02-03T04:31:14.328Z,3.67
2018-02-03T04:32:14.314Z,3.70
2018-02-03T04:33:14.265Z,3.67
2018-02-03T04:34:14.330Z,3.68
2018-02-03T04:35:14.207Z,3.82
2018-02-03T04:36:14.250Z,3.68
2018-02-03T04:37:14.148Z,3.72
2018-02-03T04:38:14.154Z,3.72
2018-02-03T04:39:14.090Z,3.65
2018-02-03T04:40:14.167Z,3.68
2018-02-03T04:41:14.030Z,3.67
2018-02-03T04:42:14.079Z,3.80
2018-02-03T04:43:13.961Z,3.70
2018-02-03T04:44:13.990Z,3.67
2018-02-03T04:45:13.942Z,3.72
2018-02-03T04:46:13.902Z,3.76
2018-02-03T04:47:13.854Z,3.67
2018-02-03T04:48:13.916Z,3.64
2018-02-03T04:49:13.793Z,3.67
2018-02-03T04:50:13.824Z,3.71
2018-02-03T04:51:13.732Z,3.65
2018-02-03T04:52:13.737Z,3.71
2018-02-03T04:53:13.673Z,3.70
2018-02-03T04:54:13.753Z,3.64
2018-02-03T04:55:13.616Z,3.70
2018-02-03T04:56:13.663Z,3.71
2018-02-03T04:57:13.555Z,3.76
2018-02-03T04:58:13.585Z,3.67
2018-02-03T04:59:13.497Z,3.65
2018-02-03T05:00:13.505Z,3.61
2018-02-03T05:01:13.437Z,3.61
2018-02-03T05:02:13.505Z,3.58
2018-02-03T05:03:13.381Z,3.61
2018-02-03T05:04:13.414Z,3.60
2018-02-03T05:05:13.314Z,3.58
2018-02-03T05:06:13.327Z,3.71
2018-02-03T05:07:13.258Z,3.72
2018-02-03T05:08:13.340Z,3.60
2018-02-03T05:09:13.202Z,3.57
2018-02-03T05:10:13.250Z,3.58
2018-02-03T05:11:13.139Z,3.61
2018-02-03T05:12:13.158Z,3.54
2018-02-03T05:13:13.081Z,3.61
2018-02-03T05:14:13.072Z,3.52
2018-02-03T05:15:13.021Z,3.58
2018-02-03T05:16:13.088Z,3.60
2018-02-03T05:17:12.960Z,3.58
2018-02-03T05:18:12.986Z,3.46
2018-02-03T05:19:12.903Z,3.49
2018-02-03T05:20:12.911Z,3.53
2018-02-03T05:21:12.842Z,3.52
2018-02-03T05:22:12.922Z,3.54
2018-02-03T05:23:12.782Z,3.53
2018-02-03T05:24:12.838Z,3.53
2018-02-03T05:25:12.724Z,3.47
2018-02-03T05:26:12.748Z,3.52
2018-02-03T05:27:12.662Z,3.54
2018-02-03T05:28:12.655Z,3.53
2018-02-03T05:29:12.603Z,3.40
2018-02-03T05:30:12.676Z,3.44
2018-02-03T05:31:12.542Z,3.52
2018-02-03T05:32:12.581Z,3.54
2018-02-03T05:33:12.484Z,3.43
2018-02-03T05:34:12.494Z,3.43
2018-02-03T05:35:12.422Z,3.49
2018-02-03T05:36:12.509Z,3.46
2018-02-03T05:37:12.397Z,3.46
2018-02-03T05:38:12.421Z,3.42
2018-02-03T05:39:12.304Z,3.42
2018-02-03T05:40:12.325Z,3.33
2018-02-03T05:41:12.242Z,3.30
2018-02-03T05:42:12.241Z,3.30
2018-02-03T05:43:12.182Z,3.36
2018-02-03T05:44:12.258Z,3.39
2018-02-03T05:45:12.123Z,3.33
2018-02-03T05:46:12.165Z,3.34
2018-02-03T05:47:12.065Z,3.34
2018-02-03T05:48:12.081Z,3.28
2018-02-03T05:49:12.009Z,3.33
2018-02-03T05:50:11.991Z,3.39
2018-02-03T05:51:11.943Z,3.31
2018-02-03T05:52:12.004Z,3.31
2018-02-03T05:53:11.881Z,3.39
2018-02-03T05:54:11.917Z,3.33
2018-02-03T05:55:11.820Z,3.28
2018-02-03T05:56:11.827Z,3.33
2018-02-03T05:57:11.759Z,3.39
2018-02-03T05:58:11.844Z,3.34
2018-02-03T05:59:11.699Z,3.34
2018-02-03T06:00:11.769Z,3.30
2018-02-03T06:01:11.640Z,3.30
2018-02-03T06:02:11.670Z,3.34
2018-02-03T06:03:11.584Z,3.25
2018-02-03T06:04:11.580Z,3.21
2018-02-03T06:05:11.519Z,3.24
2018-02-03T06:06:11.591Z,3.31
2018-02-03T06:07:11.460Z,3.24
2018-02-03T06:08:11.503Z,3.28
2018-02-03T06:09:11.406Z,3.27
2018-02-03T06:10:11.413Z,3.30
2018-02-03T06:11:11.336Z,3.28
2018-02-03T06:12:11.325Z,3.18
2018-02-03T06:13:11.280Z,3.15
2018-02-03T06:14:11.342Z,3.20
2018-02-03T06:15:11.219Z,3.21
2018-02-03T06:16:11.250Z,3.09
2018-02-03T06:17:11.167Z,3.13
2018-02-03T06:18:11.161Z,3.16
2018-02-03T06:19:11.098Z,3.10
2018-02-03T06:20:11.174Z,3.18
2018-02-03T06:21:11.040Z,3.15
2018-02-03T06:22:11.089Z,3.15
2018-02-03T06:23:10.976Z,3.13
2018-02-03T06:24:10.998Z,3.13
2018-02-03T06:25:10.921Z,3.16
2018-02-03T06:26:10.907Z,3.12
2018-02-03T06:27:10.905Z,3.15
2018-02-03T06:28:10.924Z,3.13
2018-02-03T06:29:10.795Z,3.23
2018-02-03T06:30:10.833Z,3.15
2018-02-03T06:31:10.738Z,3.13
2018-02-03T06:32:10.748Z,3.12
2018-02-03T06:33:10.675Z,3.09
2018-02-03T06:34:10.656Z,3.18
2018-02-03T06:35:10.614Z,3.13
2018-02-03T06:36:10.671Z,3.12
2018-02-03T06:37:10.556Z,3.13
2018-02-03T06:38:10.582Z,3.10
2018-02-03T06:39:10.494Z,3.09
2018-02-03T06:40:10.488Z,3.13
2018-02-03T06:41:10.443Z,3.10
2018-02-03T06:42:10.511Z,3.06
2018-02-03T06:43:10.371Z,3.12
2018-02-03T06:44:10.420Z,3.06
2018-02-03T06:45:10.311Z,3.06
2018-02-03T06:46:10.330Z,3.09
2018-02-03T06:47:10.249Z,3.13
2018-02-03T06:48:10.243Z,3.07
2018-02-03T06:49:10.182Z,3.06
2018-02-03T06:50:10.260Z,3.02
2018-02-03T06:51:10.129Z,2.98
2018-02-03T06:52:10.167Z,2.97
2018-02-03T06:53:10.068Z,2.98
2018-02-03T06:54:10.079Z,2.94
2018-02-03T06:55:10.006Z,2.87
2018-02-03T06:56:10.094Z,2.87
2018-02-03T06:57:09.950Z,2.97
2018-02-03T06:58:10.005Z,2.87
2018-02-03T06:59:09.884Z,2.88
2018-02-03T07:00:09.916Z,2.88
2018-02-03T07:01:09.827Z,2.89
2018-02-03T07:02:09.835Z,2.87
2018-02-03T07:03:09.764Z,2.82
2018-02-03T07:04:09.836Z,2.79
2018-02-03T07:05:09.705Z,2.77
2018-02-03T07:06:09.753Z,2.87
2018-02-03T07:07:09.644Z,2.76
2018-02-03T07:08:10.755Z,2.73
2018-02-03T07:09:09.578Z,2.71
2018-02-03T07:10:09.576Z,2.81
2018-02-03T07:11:09.519Z,2.73
2018-02-03T07:12:09.589Z,2.79
2018-02-03T07:13:09.461Z,2.67
2018-02-03T07:14:09.502Z,2.67
2018-02-03T07:15:09.397Z,2.70
2018-02-03T07:16:09.412Z,2.71
2018-02-03T07:17:09.337Z,2.63
2018-02-03T07:18:09.425Z,2.69
2018-02-03T07:19:09.274Z,2.55
2018-02-03T07:20:09.338Z,2.51
2018-02-03T07:21:09.214Z,2.40
2018-02-03T07:22:09.243Z,2.40
2018-02-03T07:23:09.150Z,2.52
2018-02-03T07:24:09.161Z,2.45
2018-02-03T07:25:09.089Z,2.41
2018-02-03T07:26:09.074Z,2.44
2018-02-03T07:27:09.033Z,2.35
2018-02-03T07:28:09.085Z,2.35
2018-02-03T07:29:08.972Z,2.28
2018-02-03T07:30:08.998Z,2.30
2018-02-03T07:31:08.916Z,2.26
2018-02-03T07:32:08.924Z,2.26
2018-02-03T07:33:08.846Z,2.27
2018-02-03T07:34:08.923Z,2.31
2018-02-03T07:35:08.782Z,2.28
2018-02-03T07:36:08.832Z,2.28
2018-02-03T07:37:08.719Z,2.27
2018-02-03T07:38:08.747Z,2.31
2018-02-03T07:39:08.657Z,2.37
2018-02-03T07:40:08.658Z,2.31
2018-02-03T07:41:08.597Z,2.35
2018-02-03T07:42:08.689Z,2.35
2018-02-03T07:43:08.535Z,2.33
2018-02-03T07:44:08.582Z,2.41
2018-02-03T07:45:08.471Z,2.37
2018-02-03T07:46:08.494Z,2.46
2018-02-03T07:47:08.408Z,2.38
2018-02-03T07:48:08.407Z,2.48
2018-02-03T07:49:08.336Z,2.48
2018-02-03T07:50:08.430Z,2.48
2018-02-03T07:51:08.291Z,2.53
2018-02-03T07:52:08.335Z,2.52
2018-02-03T07:53:08.224Z,2.52
2018-02-03T07:54:08.245Z,2.56
2018-02-03T07:55:08.159Z,2.56
2018-02-03T07:56:08.158Z,2.56
2018-02-03T07:57:08.096Z,2.64
2018-02-03T07:58:08.174Z,2.70
2018-02-03T07:59:08.035Z,2.64
2018-02-03T08:00:08.081Z,2.66
2018-02-03T08:01:07.973Z,2.71
2018-02-03T08:02:07.998Z,2.73
2018-02-03T08:03:07.911Z,2.74
2018-02-03T08:04:07.905Z,2.85
2018-02-03T08:05:07.852Z,2.89
2018-02-03T08:06:07.918Z,2.89
2018-02-03T08:07:07.794Z,2.87
2018-02-03T08:08:07.829Z,2.92
2018-02-03T08:09:07.718Z,2.97
2018-02-03T08:10:07.741Z,3.07
2018-02-03T08:11:07.661Z,3.05
2018-02-03T08:12:07.659Z,3.07
2018-02-03T08:13:07.602Z,3.10
2018-02-03T08:14:07.677Z,3.10
2018-02-03T08:15:07.549Z,3.10
2018-02-03T08:16:07.578Z,3.16
2018-02-03T08:17:07.477Z,3.15
2018-02-03T08:18:07.490Z,3.24
2018-02-03T08:19:07.419Z,3.20
2018-02-03T08:20:07.398Z,3.33
2018-02-03T08:21:07.357Z,3.34
2018-02-03T08:22:07.410Z,3.28
2018-02-03T08:23:07.285Z,3.36
2018-02-03T08:24:07.324Z,3.31
2018-02-03T08:25:07.233Z,3.33
2018-02-03T08:26:07.238Z,3.44
2018-02-03T08:27:07.171Z,3.46
2018-02-03T08:28:07.251Z,3.43
2018-02-03T08:29:07.111Z,3.46
2018-02-03T08:30:07.163Z,3.46
2018-02-03T08:31:07.066Z,3.44
2018-02-03T08:32:07.076Z,3.60
2018-02-03T08:33:06.988Z,3.58
2018-02-03T08:34:06.987Z,3.53
2018-02-03T08:35:06.928Z,3.47
2018-02-03T08:36:06.999Z,3.61
2018-02-03T08:37:06.865Z,3.58
2018-02-03T08:38:06.912Z,3.61
2018-02-03T08:39:06.807Z,3.62
2018-02-03T08:40:06.823Z,3.75
2018-02-03T08:41:06.745Z,3.71
2018-02-03T08:42:06.738Z,3.67
2018-02-03T08:43:06.681Z,3.67
2018-02-03T08:44:06.744Z,3.78
2018-02-03T08:45:06.624Z,3.79
2018-02-03T08:46:06.657Z,3.79
2018-02-03T08:47:06.561Z,3.78
2018-02-03T08:48:06.565Z,3.85
2018-02-03T08:49:06.495Z,3.80
2018-02-03T08:50:06.483Z,3.83
2018-02-03T08:51:06.449Z,3.86
2018-02-03T08:52:06.500Z,3.88
2018-02-03T08:53:06.375Z,3.83
2018-02-03T08:54:06.409Z,3.92
2018-02-03T08:55:06.335Z,3.86
2018-02-03T08:56:06.317Z,3.86
2018-02-03T08:57:06.259Z,3.89
2018-02-03T08:58:06.334Z,3.79
2018-02-03T08:59:06.197Z,3.89
2018-02-03T09:00:06.245Z,3.97
2018-02-03T09:01:06.133Z,3.92
2018-02-03T09:02:06.152Z,3.98
2018-02-03T09:03:06.072Z,3.96
2018-02-03T09:04:06.060Z,3.94
2018-02-03T09:05:06.015Z,3.92
2018-02-03T09:06:06.081Z,3.97
2018-02-03T09:07:05.953Z,3.98
2018-02-03T09:08:05.995Z,4.00
2018-02-03T09:09:05.895Z,3.97
2018-02-03T09:10:05.904Z,3.98
2018-02-03T09:11:05.824Z,3.98
2018-02-03T09:12:05.814Z,4.00
2018-02-03T09:13:05.768Z,3.98
2018-02-03T09:14:05.832Z,3.96
2018-02-03T09:15:05.715Z,4.03
2018-02-03T09:16:05.747Z,3.97
2018-02-03T09:17:05.650Z,3.96
2018-02-03T09:18:05.651Z,4.00
2018-02-03T09:19:05.586Z,4.01
2018-02-03T09:20:05.668Z,4.04
2018-02-03T09:21:05.529Z,4.06
2018-02-03T09:22:05.579Z,4.12
2018-02-03T09:23:05.468Z,4.08
2018-02-03T09:24:05.483Z,4.08
2018-02-03T09:25:05.407Z,4.19
2018-02-03T09:26:05.398Z,4.28
2018-02-03T09:27:05.348Z,4.43
2018-02-03T09:28:05.417Z,4.76
2018-02-03T09:29:05.337Z,5.17
2018-02-03T09:30:05.326Z,5.71
2018-02-03T09:31:05.233Z,6.50
2018-02-03T09:32:05.240Z,7.17
2018-02-03T09:33:05.178Z,8.03
2018-02-03T09:34:05.253Z,8.87
2018-02-03T09:35:05.113Z,9.61
2018-02-03T09:36:05.165Z,10.10
2018-02-03T09:37:05.056Z,10.01
2018-02-03T09:38:05.075Z,10.33
2018-02-03T09:39:05.008Z,10.73
2018-02-03T09:40:05.089Z,10.84
2018-02-03T09:41:04.956Z,11.34
2018-02-03T09:42:05.001Z,11.31
2018-02-03T09:43:04.905Z,11.62
2018-02-03T09:44:04.926Z,11.62
2018-02-03T09:45:04.858Z,11.67
2018-02-03T09:46:04.925Z,12.01
2018-02-03T09:47:04.813Z,12.34
2018-02-03T09:48:04.941Z,12.66
2018-02-03T09:49:04.773Z,12.88
2018-02-03T09:50:04.846Z,13.07
2018-02-03T09:51:04.727Z,13.07
2018-02-03T09:52:04.709Z,12.63
2018-02-03T09:53:04.700Z,12.75
2018-02-03T09:54:04.778Z,12.02
2018-02-03T09:55:04.653Z,11.47
2018-02-03T09:56:04.687Z,11.34
2018-02-03T09:57:04.614Z,11.36
2018-02-03T09:58:04.703Z,11.36
2018-02-03T09:59:04.574Z,10.46
2018-02-03T10:00:04.612Z,10.47
2018-02-03T10:01:04.535Z,10.78
2018-02-03T10:02:04.630Z,10.89
2018-02-03T10:03:04.513Z,10.99
2018-02-03T10:04:04.537Z,10.88
2018-02-03T10:05:04.465Z,10.40
2018-02-03T10:06:04.558Z,9.67
2018-02-03T10:07:04.427Z,9.38
2018-02-03T10:08:04.469Z,8.99
2018-02-03T10:09:04.395Z,8.79
2018-02-03T10:10:04.480Z,8.48
2018-02-03T10:11:04.347Z,8.20
2018-02-03T10:12:04.391Z,7.93
2018-02-03T10:13:04.308Z,7.75
2018-02-03T10:14:04.302Z,7.77
2018-02-03T10:15:04.324Z,7.71
2018-02-03T10:16:04.317Z,7.71
2018-02-03T10:17:04.223Z,7.53
2018-02-03T10:18:04.228Z,7.31
2018-02-03T10:19:04.179Z,7.23
2018-02-03T10:20:04.240Z,7.19
2018-02-03T10:21:04.134Z,7.09
2018-02-03T10:22:04.150Z,7.13
2018-02-03T10:23:04.104Z,6.89
2018-02-03T10:24:04.172Z,6.84
2018-02-03T10:25:04.045Z,6.81
2018-02-03T10:26:04.078Z,6.73
2018-02-03T10:27:03.997Z,6.66
2018-02-03T10:28:03.992Z,6.69
2018-02-03T10:29:03.953Z,6.53
2018-02-03T10:30:04.002Z,6.43
2018-02-03T10:31:03.897Z,6.47
2018-02-03T10:32:03.916Z,6.36
2018-02-03T10:33:03.851Z,6.30
2018-02-03T10:34:03.925Z,6.38
2018-02-03T10:35:03.793Z,6.35
2018-02-03T10:36:03.837Z,6.43
2018-02-03T10:37:03.752Z,6.48
2018-02-03T10:38:03.751Z,6.44
2018-02-03T10:39:03.703Z,6.30
2018-02-03T10:40:03.782Z,6.19
2018-02-03T10:41:03.650Z,6.21
2018-02-03T10:42:03.674Z,6.04
2018-02-03T10:43:03.598Z,6.22
2018-02-03T10:44:03.590Z,6.16
2018-02-03T10:45:03.547Z,6.11
2018-02-03T10:46:03.603Z,6.11
2018-02-03T10:47:03.496Z,6.25
2018-02-03T10:48:03.530Z,6.18
2018-02-03T10:49:03.442Z,6.07
2018-02-03T10:50:03.528Z,6.04
2018-02-03T10:51:03.394Z,6.30
2018-02-03T10:52:03.454Z,6.30
2018-02-03T10:53:03.388Z,6.26
2018-02-03T10:54:03.354Z,6.29
2018-02-03T10:55:03.307Z,6.32
2018-02-03T10:56:03.369Z,6.28
2018-02-03T10:57:03.235Z,6.32
2018-02-03T10:58:03.204Z,6.29
2018-02-03T10:59:03.178Z,6.29
2018-02-03T11:00:03.191Z,6.29
2018-02-03T11:01:03.127Z,6.18
2018-02-03T11:02:03.201Z,6.26
2018-02-03T11:03:03.070Z,6.16
2018-02-03T11:04:03.112Z,6.11
2018-02-03T11:05:03.162Z,6.26
2018-02-03T11:06:03.129Z,6.25
2018-02-03T11:07:02.961Z,6.26
2018-02-03T11:08:03.040Z,6.21
2018-02-03T11:09:02.908Z,6.21
2018-02-03T11:10:02.958Z,6.29
2018-02-03T11:11:02.852Z,6.29
2018-02-03T11:12:02.964Z,6.33
2018-02-03T11:13:02.797Z,6.30
2018-02-03T11:14:02.876Z,6.21
2018-02-03T11:15:02.752Z,6.19
2018-02-03T11:16:02.797Z,6.26
2018-02-03T11:17:02.688Z,6.19
2018-02-03T11:18:02.796Z,6.06
2018-02-03T11:19:02.635Z,6.10
2018-02-03T11:20:02.713Z,6.09
2018-02-03T11:21:02.578Z,6.03
2018-02-03T11:22:02.623Z,6.06
2018-02-03T11:23:02.518Z,6.09
2018-02-03T11:24:02.641Z,6.00
2018-02-03T11:25:02.471Z,6.04
2018-02-03T11:26:02.554Z,6.00
2018-02-03T11:27:02.413Z,5.98
2018-02-03T11:28:02.461Z,6.04
2018-02-03T11:29:02.358Z,6.03
2018-02-03T11:30:02.475Z,6.10
2018-02-03T11:31:02.301Z,6.18
2018-02-03T11:32:02.391Z,6.22
2018-02-03T11:33:02.250Z,6.10
2018-02-03T11:34:02.300Z,6.09
2018-02-03T11:35:02.192Z,5.98
2018-02-03T11:36:02.311Z,5.98
2018-02-03T11:37:02.138Z,5.95
2018-02-03T11:38:02.223Z,6.04
2018-02-03T11:39:02.079Z,6.03
2018-02-03T11:40:02.143Z,6.03
2018-02-03T11:41:02.025Z,6.06
2018-02-03T11:42:02.151Z,6.06
2018-02-03T11:43:01.996Z,6.07
2018-02-03T11:44:02.062Z,6.01
2018-02-03T11:45:01.939Z,6.07
2018-02-03T11:46:03.018Z,6.07
2018-02-03T11:47:01.884Z,6.06
2018-02-03T11:48:02.034Z,6.01
2018-02-03T11:49:01.812Z,6.01
2018-02-03T11:50:01.900Z,6.00
2018-02-03T11:51:01.748Z,5.91
2018-02-03T11:52:01.808Z,5.96
2018-02-03T11:53:01.693Z,6.01
2018-02-03T11:54:01.821Z,6.03
2018-02-03T11:55:01.638Z,6.10
2018-02-03T11:56:01.733Z,5.98
2018-02-03T11:57:01.580Z,6.06
2018-02-03T11:58:01.644Z,6.00
2018-02-03T11:59:01.523Z,6.01
2018-02-03T12:00:01.660Z,6.01
2018-02-03T12:01:01.472Z,6.01
2018-02-03T12:02:01.574Z,6.07
2018-02-03T12:03:01.413Z,6.09
2018-02-03T12:04:01.483Z,6.21
2018-02-03T12:05:01.356Z,6.10
2018-02-03T12:06:01.464Z,6.07
2018-02-03T12:07:01.323Z,6.22
2018-02-03T12:08:01.409Z,6.26
2018-02-03T12:09:01.242Z,6.32
2018-02-03T12:10:01.317Z,6.29
2018-02-03T12:11:01.191Z,6.29
2018-02-03T12:12:01.406Z,6.21
2018-02-03T12:13:01.132Z,6.28
2018-02-03T12:14:01.247Z,6.29
2018-02-03T12:15:01.074Z,6.28
2018-02-03T12:16:01.157Z,6.26
2018-02-03T12:17:01.021Z,6.33
2018-02-03T12:18:01.171Z,6.22
2018-02-03T12:19:00.963Z,6.19
2018-02-03T12:20:01.085Z,6.14
2018-02-03T12:21:00.926Z,6.19
2018-02-03T12:22:00.995Z,6.25
2018-02-03T12:23:00.852Z,6.21
2018-02-03T12:24:01.007Z,6.19
2018-02-03T12:25:00.797Z,6.21
2018-02-03T12:26:00.919Z,6.19
2018-02-03T12:27:00.742Z,6.29
2018-02-03T12:28:00.831Z,6.29
2018-02-03T12:29:00.688Z,6.32
2018-02-03T12:30:00.853Z,6.21
2018-02-03T12:31:00.648Z,6.26
2018-02-03T12:32:01.309Z,6.21
2018-02-03T12:33:00.582Z,6.22
2018-02-03T12:34:00.676Z,6.14
2018-02-03T12:35:00.516Z,6.09
2018-02-03T12:36:00.604Z,6.04
2018-02-03T12:37:00.461Z,6.13
2018-02-03T12:38:00.439Z,6.09
2018-02-03T12:39:00.503Z,6.06
2018-02-03T12:40:00.376Z,6.06
2018-02-03T12:41:00.414Z,6.04
2018-02-03T12:42:00.328Z,6.04
2018-02-03T12:43:00.325Z,6.07
2018-02-03T12:44:00.288Z,6.10
2018-02-03T12:45:00.332Z,6.10
2018-02-03T12:46:00.212Z,6.14
2018-02-03T12:47:00.247Z,6.21
2018-02-03T12:48:00.164Z,6.25
2018-02-03T12:49:00.161Z,6.32
2018-02-03T12:50:00.306Z,6.28
2018-02-03T12:51:00.169Z,6.41
2018-02-03T12:52:00.039Z,6.35
2018-02-03T12:53:00.083Z,6.59
2018-02-03T12:53:59.987Z,6.46
2018-02-03T12:54:59.993Z,6.46
2018-02-03T12:55:59.931Z,6.48
2018-02-03T12:57:00.006Z,6.51
2018-02-03T12:57:59.878Z,6.43
2018-02-03T12:58:59.909Z,6.40
2018-02-03T12:59:59.821Z,6.54
2018-02-03T13:00:59.826Z,6.54
2018-02-03T13:01:59.774Z,6.50
2018-02-03T13:02:59.834Z,6.44
2018-02-03T13:03:59.711Z,6.51
2018-02-03T13:04:59.742Z,6.48
2018-02-03T13:05:59.657Z,6.43
2018-02-03T13:06:59.655Z,6.33
2018-02-03T13:07:59.599Z,6.32
2018-02-03T13:08:59.673Z,6.28
2018-02-03T13:09:59.541Z,6.32
2018-02-03T13:10:59.576Z,6.22
2018-02-03T13:11:59.487Z,6.18
2018-02-03T13:12:59.596Z,6.18
2018-02-03T13:13:59.437Z,6.07
2018-02-03T13:14:59.500Z,6.11
2018-02-03T13:15:59.370Z,6.06
2018-02-03T13:16:59.411Z,6.03